usa flag      colorado flag

Language: 

TigerDenWX History Data from Weather Underground


TigerDenWX Weather Station Historical Data
 
Daily Summary for August 24, 2019 Units:  English    Metric   Both
Daily Weekly Monthly Yearly Custom
  Current: High: Low: Average:
Temperature: 85.3 °F 87.4 °F 56.1 °F 69.9 °F
Dew Point: 40.9 °F 55.4 °F 38.7 °F 49.6 °F
Humidity: 21% 85% 19% 54%
Wind Speed: 1mph 8mph 0mph 1.8mph
Wind Gust: 7mph 13mph - -
WindSE - - SSW
Pressure: 29.69 in 29.71 in 29.68 in -
Precipitation: 0 in      
Historical Graphs
 
 
Tabular Data for August 24, 2019
Time Temperature Dew Point Pressure Wind Wind Speed Wind Gust Humidity Rainfall Rate (Hourly) solar
00:00 64.5 °F 50.3 °F 29.70 in Calm   8 mph 60% 0 in 0.00 W/m2
00:15 64.3 °F 50.1 °F 29.70 in Calm   11 mph 60% 0 in 0.00 W/m2
00:30 63.9 °F 49.7 °F 29.70 in East 5 mph 5 mph 60% 0 in 0.00 W/m2
00:45 63.9 °F 49.3 °F 29.69 in South 3 mph 8 mph 59% 0 in 0.00 W/m2
01:00 64.2 °F 49.6 °F 29.69 in SE 1 mph 7 mph 59% 0 in 0.00 W/m2
01:15 64.2 °F 50 °F 29.69 in SE 4 mph 10 mph 60% 0 in 0.00 W/m2
01:30 64.3 °F 50.1 °F 29.69 in SE 2 mph 13 mph 60% 0 in 0.00 W/m2
01:45 64.4 °F 50.2 °F 29.70 in SE 1 mph 10 mph 60% 0 in 0.00 W/m2
02:00 64 °F 50.7 °F 29.70 in SSE 3 mph 13 mph 62% 0 in 0.00 W/m2
02:15 63.6 °F 52 °F 29.70 in ESE 2 mph 8 mph 66% 0 in 0.00 W/m2
02:30 63.1 °F 52 °F 29.70 in SE 1 mph 8 mph 67% 0 in 0.00 W/m2
02:45 62.7 °F 52 °F 29.70 in SE 3 mph 8 mph 68% 0 in 0.00 W/m2
03:00 62.2 °F 51.9 °F 29.70 in SSE 1 mph 6 mph 69% 0 in 0.00 W/m2
03:15 61.8 °F 52.3 °F 29.69 in SE 2 mph 9 mph 71% 0 in 0.00 W/m2
03:30 61.7 °F 52.6 °F 29.69 in ESE 4 mph 7 mph 72% 0 in 0.00 W/m2
03:45 61.8 °F 52.7 °F 29.69 in Calm   7 mph 72% 0 in 0.00 W/m2
04:00 61.8 °F 53.1 °F 29.69 in East 1 mph 7 mph 73% 0 in 0.00 W/m2
04:15 62 °F 53.2 °F 29.69 in Calm   8 mph 73% 0 in 0.00 W/m2
04:30 61.6 °F 53.2 °F 29.69 in SW 4 mph 8 mph 74% 0 in 0.00 W/m2
04:45 60.9 °F 51.8 °F 29.69 in SW 5 mph 8 mph 72% 0 in 0.00 W/m2
05:00 60.2 °F 52.6 °F 29.69 in SW 3 mph 7 mph 76% 0 in 0.00 W/m2
05:15 59.6 °F 52.7 °F 29.69 in Calm   3 mph 78% 0 in 0.00 W/m2
05:30 58.8 °F 52.6 °F 29.69 in Calm     80% 0 in 0.00 W/m2
05:45 58.2 °F 52.4 °F 29.69 in Calm     81% 0 in 0.00 W/m2
06:00 57.6 °F 52.1 °F 29.69 in Calm   1 mph 82% 0 in 0.00 W/m2
06:15 56.9 °F 51.8 °F 29.69 in Calm   4 mph 83% 0 in 0.00 W/m2
06:30 56.4 °F 51.3 °F 29.69 in Calm     83% 0 in 11.00 W/m2
07:00 56.1 °F 51.7 °F 29.69 in Calm   1 mph 85% 0 in 39.00 W/m2
07:15 56.9 °F 52.4 °F 29.69 in Calm   5 mph 85% 0 in 49.00 W/m2
07:30 57.8 °F 52.7 °F 29.69 in Calm   5 mph 83% 0 in 58.00 W/m2
07:45 58.9 °F 53.4 °F 29.70 in Calm   3 mph 82% 0 in 46.00 W/m2
08:00 59.8 °F 54 °F 29.69 in SW 4 mph 5 mph 81% 0 in 49.00 W/m2
08:15 60.5 °F 54 °F 29.70 in WSW 1 mph 7 mph 79% 0 in 54.00 W/m2
08:30 61.7 °F 54.8 °F 29.69 in SW 3 mph 5 mph 78% 0 in 67.00 W/m2
08:45 62.8 °F 54.8 °F 29.69 in Calm   4 mph 75% 0 in 350.00 W/m2
09:00 65.1 °F 55.1 °F 29.69 in Calm   3 mph 70% 0 in 475.00 W/m2
09:15 67.8 °F 55.2 °F 29.69 in South 1 mph 2 mph 64% 0 in 526.00 W/m2
09:30 69.9 °F 54.9 °F 29.68 in Calm   4 mph 59% 0 in 582.00 W/m2
09:45 72 °F 55.4 °F 29.69 in ESE 2 mph 2 mph 56% 0 in 629.00 W/m2
10:00 73.9 °F 55.2 °F 29.69 in Calm   2 mph 52% 0 in 682.00 W/m2
10:15 75.6 °F 53.4 °F 29.69 in Calm   3 mph 46% 0 in 749.00 W/m2
10:30 76.4 °F 54.1 °F 29.69 in NNW 4 mph 6 mph 46% 0 in 861.00 W/m2
10:45 77.1 °F 52.9 °F 29.69 in NNW 3 mph 5 mph 43% 0 in 823.00 W/m2
11:00 77.5 °F 53.2 °F 29.69 in NE 3 mph 5 mph 43% 0 in 429.00 W/m2
11:15 77.4 °F 51.9 °F 29.69 in NNE 3 mph 5 mph 41% 0 in 504.00 W/m2
11:30 77.8 °F 49.4 °F 29.70 in NNW 2 mph 5 mph 37% 0 in 485.00 W/m2
11:45 78.3 °F 48.4 °F 29.70 in NNW 2 mph 7 mph 35% 0 in 559.00 W/m2
12:00 79 °F 46.6 °F 29.70 in WNW 8 mph 9 mph 32% 0 in 548.00 W/m2
12:15 79.2 °F 47.6 °F 29.71 in Calm   7 mph 33% 0 in 647.00 W/m2
12:30 79.7 °F 46.4 °F 29.70 in Calm   8 mph 31% 0 in 406.00 W/m2
12:45 79.5 °F 47.1 °F 29.70 in NW 2 mph 10 mph 32% 0 in 387.00 W/m2
13:00 80.1 °F 47.6 °F 29.70 in NNW 3 mph 6 mph 32% 0 in 568.00 W/m2
13:15 81.2 °F 46.8 °F 29.70 in WNW 4 mph 10 mph 30% 0 in 503.00 W/m2
13:30 81.4 °F 44.2 °F 29.70 in WSW 8 mph 9 mph 27% 0 in 371.00 W/m2
13:45 81.6 °F 42.4 °F 29.70 in NW 2 mph 8 mph 25% 0 in 345.00 W/m2
14:00 81.4 °F 43.2 °F 29.71 in NNE 1 mph 5 mph 26% 0 in 295.00 W/m2
14:15 81.8 °F 43.6 °F 29.71 in Calm   5 mph 26% 0 in 362.00 W/m2
14:30 82.1 °F 41.7 °F 29.70 in NW 2 mph 5 mph 24% 0 in 332.00 W/m2
14:45 82.2 °F 40.7 °F 29.70 in Calm   4 mph 23% 0 in 378.00 W/m2
15:00 82.2 °F 42.9 °F 29.70 in NNW 1 mph 4 mph 25% 0 in 403.00 W/m2
15:15 83 °F 41.4 °F 29.70 in NW 2 mph 4 mph 23% 0 in 362.00 W/m2
15:30 84.3 °F 41.3 °F 29.69 in NE 3 mph 3 mph 22% 0 in 946.00 W/m2
15:45 85.4 °F 39.8 °F 29.69 in Calm   6 mph 20% 0 in 443.00 W/m2
16:00 85.7 °F 38.7 °F 29.69 in West 1 mph 10 mph 19% 0 in 800.00 W/m2
16:15 87.4 °F 40.1 °F 29.69 in NNE 8 mph 8 mph 19% 0 in 701.00 W/m2
16:30 86.1 °F 40.3 °F 29.70 in Calm   4 mph 20% 0 in 691.00 W/m2
16:45 85.3 °F 40.9 °F 29.69 in SE 1 mph 7 mph 21% 0 in 570.00 W/m2
SE Aurora, Colorado Weather
Compliments of Weather Underground - 2 mb
top